sensor_id;sensor_type;location;lat;lon;timestamp;P1;durP1;ratioP1;P2;durP2;ratioP2
5153;SDS011;2595;53.584;10.084;2022-12-01T00:00:51;56.37;;;33.63;;
5153;SDS011;2595;53.584;10.084;2022-12-01T00:03:18;57.20;;;34.20;;
5153;SDS011;2595;53.584;10.084;2022-12-01T00:05:44;68.30;;;33.67;;
5153;SDS011;2595;53.584;10.084;2022-12-01T00:08:10;67.97;;;34.13;;
5153;SDS011;2595;53.584;10.084;2022-12-01T00:10:35;68.50;;;34.70;;
5153;SDS011;2595;53.584;10.084;2022-12-01T00:13:02;67.67;;;34.83;;
5153;SDS011;2595;53.584;10.084;2022-12-01T00:15:33;65.90;;;36.67;;
5153;SDS011;2595;53.584;10.084;2022-12-01T00:18:00;66.20;;;36.70;;
5153;SDS011;2595;53.584;10.084;2022-12-01T00:20:27;64.37;;;34.60;;
5153;SDS011;2595;53.584;10.084;2022-12-01T00:22:53;59.10;;;32.93;;
5153;SDS011;2595;53.584;10.084;2022-12-01T00:25:19;65.23;;;35.57;;
5153;SDS011;2595;53.584;10.084;2022-12-01T00:27:49;67.77;;;36.27;;
5153;SDS011;2595;53.584;10.084;2022-12-01T00:30:16;68.90;;;38.20;;
5153;SDS011;2595;53.584;10.084;2022-12-01T00:32:43;65.10;;;34.80;;
5153;SDS011;2595;53.584;10.084;2022-12-01T00:35:09;67.80;;;35.57;;
5153;SDS011;2595;53.584;10.084;2022-12-01T00:37:35;62.97;;;32.90;;
5153;SDS011;2595;53.584;10.084;2022-12-01T00:40:01;67.07;;;35.30;;
5153;SDS011;2595;53.584;10.084;2022-12-01T00:42:28;56.57;;;32.63;;
5153;SDS011;2595;53.584;10.084;2022-12-01T00:44:53;76.97;;;36.43;;
5153;SDS011;2595;53.584;10.084;2022-12-01T00:47:19;64.00;;;32.47;;
5153;SDS011;2595;53.584;10.084;2022-12-01T00:49:45;63.57;;;34.10;;
5153;SDS011;2595;53.584;10.084;2022-12-01T00:52:11;67.30;;;33.60;;
5153;SDS011;2595;53.584;10.084;2022-12-01T00:54:37;63.43;;;35.70;;
5153;SDS011;2595;53.584;10.084;2022-12-01T00:57:03;77.40;;;38.10;;
5153;SDS011;2595;53.584;10.084;2022-12-01T00:59:29;64.90;;;34.87;;
5153;SDS011;2595;53.584;10.084;2022-12-01T01:01:54;63.73;;;34.37;;
5153;SDS011;2595;53.584;10.084;2022-12-01T01:04:20;74.87;;;36.63;;
5153;SDS011;2595;53.584;10.084;2022-12-01T01:06:46;61.53;;;34.37;;
5153;SDS011;2595;53.584;10.084;2022-12-01T01:09:12;69.37;;;34.60;;
5153;SDS011;2595;53.584;10.084;2022-12-01T01:11:39;69.73;;;35.10;;
5153;SDS011;2595;53.584;10.084;2022-12-01T01:14:05;65.83;;;38.10;;
5153;SDS011;2595;53.584;10.084;2022-12-01T01:16:31;66.63;;;35.57;;
5153;SDS011;2595;53.584;10.084;2022-12-01T01:18:57;61.73;;;33.03;;
5153;SDS011;2595;53.584;10.084;2022-12-01T01:21:23;70.07;;;35.87;;
5153;SDS011;2595;53.584;10.084;2022-12-01T01:23:49;65.00;;;37.20;;
5153;SDS011;2595;53.584;10.084;2022-12-01T01:26:17;63.40;;;34.47;;
5153;SDS011;2595;53.584;10.084;2022-12-01T01:28:46;69.07;;;36.47;;
5153;SDS011;2595;53.584;10.084;2022-12-01T01:31:14;71.93;;;35.10;;
5153;SDS011;2595;53.584;10.084;2022-12-01T01:33:42;65.50;;;33.23;;
5153;SDS011;2595;53.584;10.084;2022-12-01T01:36:08;75.27;;;35.73;;
5153;SDS011;2595;53.584;10.084;2022-12-01T01:38:34;72.83;;;35.33;;
5153;SDS011;2595;53.584;10.084;2022-12-01T01:41:00;67.33;;;36.43;;
5153;SDS011;2595;53.584;10.084;2022-12-01T01:43:37;72.83;;;37.57;;
5153;SDS011;2595;53.584;10.084;2022-12-01T01:48:58;64.90;;;34.10;;
5153;SDS011;2595;53.584;10.084;2022-12-01T01:51:27;64.10;;;34.93;;
5153;SDS011;2595;53.584;10.084;2022-12-01T01:54:01;64.77;;;35.67;;
5153;SDS011;2595;53.584;10.084;2022-12-01T01:56:29;74.73;;;36.60;;
5153;SDS011;2595;53.584;10.084;2022-12-01T01:58:56;62.53;;;33.63;;
5153;SDS011;2595;53.584;10.084;2022-12-01T02:01:22;73.00;;;35.07;;
5153;SDS011;2595;53.584;10.084;2022-12-01T02:03:48;70.07;;;36.20;;
5153;SDS011;2595;53.584;10.084;2022-12-01T02:06:16;69.07;;;34.03;;
5153;SDS011;2595;53.584;10.084;2022-12-01T02:08:42;68.27;;;35.60;;
5153;SDS011;2595;53.584;10.084;2022-12-01T02:16:43;69.83;;;36.27;;
5153;SDS011;2595;53.584;10.084;2022-12-01T02:22:11;68.00;;;34.37;;
5153;SDS011;2595;53.584;10.084;2022-12-01T02:25:12;78.40;;;37.77;;
5153;SDS011;2595;53.584;10.084;2022-12-01T02:28:13;74.90;;;35.80;;
5153;SDS011;2595;53.584;10.084;2022-12-01T02:33:41;79.80;;;37.73;;
5153;SDS011;2595;53.584;10.084;2022-12-01T02:36:17;66.83;;;36.00;;
5153;SDS011;2595;53.584;10.084;2022-12-01T02:39:06;71.80;;;35.30;;
5153;SDS011;2595;53.584;10.084;2022-12-01T02:41:51;75.97;;;37.13;;
5153;SDS011;2595;53.584;10.084;2022-12-01T02:44:26;74.57;;;36.07;;
5153;SDS011;2595;53.584;10.084;2022-12-01T02:46:58;73.93;;;37.03;;
5153;SDS011;2595;53.584;10.084;2022-12-01T02:49:37;69.17;;;34.50;;
5153;SDS011;2595;53.584;10.084;2022-12-01T02:52:06;69.67;;;34.57;;
5153;SDS011;2595;53.584;10.084;2022-12-01T02:54:34;77.37;;;37.40;;
5153;SDS011;2595;53.584;10.084;2022-12-01T02:57:00;69.60;;;37.00;;
5153;SDS011;2595;53.584;10.084;2022-12-01T02:59:26;69.73;;;35.70;;
5153;SDS011;2595;53.584;10.084;2022-12-01T03:02:12;71.63;;;33.87;;
5153;SDS011;2595;53.584;10.084;2022-12-01T03:05:00;72.83;;;35.30;;
5153;SDS011;2595;53.584;10.084;2022-12-01T03:23:42;79.63;;;35.77;;
5153;SDS011;2595;53.584;10.084;2022-12-01T03:26:13;83.40;;;40.53;;
5153;SDS011;2595;53.584;10.084;2022-12-01T03:28:43;75.27;;;36.73;;
5153;SDS011;2595;53.584;10.084;2022-12-01T03:31:15;87.47;;;41.20;;
5153;SDS011;2595;53.584;10.084;2022-12-01T03:33:54;82.43;;;39.80;;
5153;SDS011;2595;53.584;10.084;2022-12-01T03:36:37;81.83;;;38.33;;
5153;SDS011;2595;53.584;10.084;2022-12-01T03:39:07;79.33;;;37.27;;
5153;SDS011;2595;53.584;10.084;2022-12-01T03:41:47;92.97;;;40.70;;
5153;SDS011;2595;53.584;10.084;2022-12-01T03:44:23;81.63;;;38.43;;
5153;SDS011;2595;53.584;10.084;2022-12-01T03:46:54;86.30;;;37.70;;
5153;SDS011;2595;53.584;10.084;2022-12-01T03:49:32;94.73;;;38.70;;
5153;SDS011;2595;53.584;10.084;2022-12-01T03:52:08;95.00;;;40.93;;
5153;SDS011;2595;53.584;10.084;2022-12-01T04:00:08;88.77;;;37.77;;
5153;SDS011;2595;53.584;10.084;2022-12-01T04:02:35;81.07;;;38.03;;
5153;SDS011;2595;53.584;10.084;2022-12-01T04:05:02;72.37;;;35.07;;
5153;SDS011;2595;53.584;10.084;2022-12-01T04:07:29;77.73;;;37.97;;
5153;SDS011;2595;53.584;10.084;2022-12-01T04:09:55;78.37;;;39.23;;
5153;SDS011;2595;53.584;10.084;2022-12-01T04:12:21;83.80;;;39.50;;
5153;SDS011;2595;53.584;10.084;2022-12-01T04:15:05;72.73;;;36.90;;
5153;SDS011;2595;53.584;10.084;2022-12-01T04:17:32;78.17;;;36.47;;
5153;SDS011;2595;53.584;10.084;2022-12-01T04:19:58;83.83;;;37.30;;
5153;SDS011;2595;53.584;10.084;2022-12-01T04:22:24;82.60;;;39.07;;
5153;SDS011;2595;53.584;10.084;2022-12-01T04:24:50;83.80;;;38.47;;
5153;SDS011;2595;53.584;10.084;2022-12-01T04:27:16;77.00;;;34.40;;
5153;SDS011;2595;53.584;10.084;2022-12-01T04:29:42;78.93;;;35.73;;
5153;SDS011;2595;53.584;10.084;2022-12-01T04:32:08;89.63;;;37.97;;
5153;SDS011;2595;53.584;10.084;2022-12-01T04:34:33;74.93;;;37.03;;
5153;SDS011;2595;53.584;10.084;2022-12-01T04:36:59;69.37;;;35.53;;
5153;SDS011;2595;53.584;10.084;2022-12-01T04:39:24;71.97;;;34.30;;
5153;SDS011;2595;53.584;10.084;2022-12-01T04:41:50;76.47;;;39.43;;
5153;SDS011;2595;53.584;10.084;2022-12-01T04:44:16;85.33;;;38.47;;
5153;SDS011;2595;53.584;10.084;2022-12-01T04:46:41;80.07;;;37.93;;
5153;SDS011;2595;53.584;10.084;2022-12-01T04:49:07;79.27;;;35.20;;
5153;SDS011;2595;53.584;10.084;2022-12-01T04:51:33;79.90;;;38.27;;
5153;SDS011;2595;53.584;10.084;2022-12-01T04:53:59;82.17;;;34.97;;
5153;SDS011;2595;53.584;10.084;2022-12-01T04:56:26;87.77;;;37.67;;
5153;SDS011;2595;53.584;10.084;2022-12-01T04:58:51;80.53;;;36.60;;
5153;SDS011;2595;53.584;10.084;2022-12-01T05:01:17;80.93;;;38.70;;
5153;SDS011;2595;53.584;10.084;2022-12-01T05:03:44;78.30;;;37.03;;
5153;SDS011;2595;53.584;10.084;2022-12-01T05:06:12;86.90;;;37.43;;
5153;SDS011;2595;53.584;10.084;2022-12-01T05:08:40;76.43;;;35.80;;
5153;SDS011;2595;53.584;10.084;2022-12-01T05:11:06;77.10;;;36.30;;
5153;SDS011;2595;53.584;10.084;2022-12-01T05:13:36;76.57;;;37.00;;
5153;SDS011;2595;53.584;10.084;2022-12-01T05:16:25;72.00;;;34.47;;
5153;SDS011;2595;53.584;10.084;2022-12-01T05:18:52;83.63;;;35.83;;
5153;SDS011;2595;53.584;10.084;2022-12-01T05:21:38;74.30;;;35.57;;
5153;SDS011;2595;53.584;10.084;2022-12-01T05:24:04;85.10;;;37.77;;
5153;SDS011;2595;53.584;10.084;2022-12-01T05:26:30;90.00;;;40.17;;
5153;SDS011;2595;53.584;10.084;2022-12-01T05:28:56;82.47;;;38.80;;
5153;SDS011;2595;53.584;10.084;2022-12-01T05:31:21;90.57;;;37.93;;
5153;SDS011;2595;53.584;10.084;2022-12-01T05:33:47;79.90;;;37.90;;
5153;SDS011;2595;53.584;10.084;2022-12-01T05:36:12;80.70;;;36.70;;
5153;SDS011;2595;53.584;10.084;2022-12-01T05:38:38;83.20;;;38.90;;
5153;SDS011;2595;53.584;10.084;2022-12-01T05:41:04;87.27;;;35.37;;
5153;SDS011;2595;53.584;10.084;2022-12-01T05:43:30;80.17;;;36.80;;
5153;SDS011;2595;53.584;10.084;2022-12-01T05:45:56;81.30;;;38.27;;
5153;SDS011;2595;53.584;10.084;2022-12-01T05:48:22;80.77;;;37.30;;
5153;SDS011;2595;53.584;10.084;2022-12-01T05:50:48;84.53;;;38.60;;
5153;SDS011;2595;53.584;10.084;2022-12-01T05:53:13;76.37;;;35.57;;
5153;SDS011;2595;53.584;10.084;2022-12-01T05:55:39;79.13;;;36.00;;
5153;SDS011;2595;53.584;10.084;2022-12-01T05:58:05;89.70;;;38.27;;
5153;SDS011;2595;53.584;10.084;2022-12-01T06:00:31;79.93;;;36.70;;
5153;SDS011;2595;53.584;10.084;2022-12-01T06:02:57;75.93;;;35.60;;
5153;SDS011;2595;53.584;10.084;2022-12-01T06:05:23;94.20;;;38.30;;
5153;SDS011;2595;53.584;10.084;2022-12-01T06:07:48;83.73;;;38.80;;
5153;SDS011;2595;53.584;10.084;2022-12-01T06:10:14;80.10;;;39.50;;
5153;SDS011;2595;53.584;10.084;2022-12-01T06:12:40;75.63;;;36.00;;
5153;SDS011;2595;53.584;10.084;2022-12-01T06:15:06;79.97;;;36.93;;
5153;SDS011;2595;53.584;10.084;2022-12-01T06:17:32;73.40;;;34.23;;
5153;SDS011;2595;53.584;10.084;2022-12-01T06:19:58;82.03;;;36.17;;
5153;SDS011;2595;53.584;10.084;2022-12-01T06:22:23;83.83;;;34.77;;
5153;SDS011;2595;53.584;10.084;2022-12-01T06:24:49;75.27;;;35.03;;
5153;SDS011;2595;53.584;10.084;2022-12-01T06:27:15;78.90;;;36.70;;
5153;SDS011;2595;53.584;10.084;2022-12-01T06:29:41;75.30;;;34.97;;
5153;SDS011;2595;53.584;10.084;2022-12-01T06:32:06;79.10;;;37.20;;
5153;SDS011;2595;53.584;10.084;2022-12-01T06:34:32;78.80;;;36.17;;
5153;SDS011;2595;53.584;10.084;2022-12-01T06:36:58;70.63;;;33.63;;
5153;SDS011;2595;53.584;10.084;2022-12-01T06:39:23;82.27;;;35.73;;
5153;SDS011;2595;53.584;10.084;2022-12-01T06:41:49;72.30;;;35.23;;
5153;SDS011;2595;53.584;10.084;2022-12-01T06:44:14;82.50;;;35.63;;
5153;SDS011;2595;53.584;10.084;2022-12-01T06:46:40;84.53;;;35.30;;
5153;SDS011;2595;53.584;10.084;2022-12-01T06:49:08;72.20;;;34.97;;
5153;SDS011;2595;53.584;10.084;2022-12-01T06:51:35;75.20;;;35.50;;
5153;SDS011;2595;53.584;10.084;2022-12-01T06:54:01;92.07;;;37.13;;
5153;SDS011;2595;53.584;10.084;2022-12-01T06:56:27;79.97;;;36.17;;
5153;SDS011;2595;53.584;10.084;2022-12-01T06:58:52;82.97;;;35.87;;
5153;SDS011;2595;53.584;10.084;2022-12-01T07:01:18;90.23;;;37.60;;
5153;SDS011;2595;53.584;10.084;2022-12-01T07:03:47;74.77;;;34.63;;
5153;SDS011;2595;53.584;10.084;2022-12-01T07:06:16;96.67;;;36.23;;
5153;SDS011;2595;53.584;10.084;2022-12-01T07:08:42;74.33;;;36.30;;
5153;SDS011;2595;53.584;10.084;2022-12-01T07:11:09;83.20;;;36.93;;
5153;SDS011;2595;53.584;10.084;2022-12-01T07:13:36;74.50;;;35.13;;
5153;SDS011;2595;53.584;10.084;2022-12-01T07:16:03;76.73;;;35.20;;
5153;SDS011;2595;53.584;10.084;2022-12-01T07:18:30;91.17;;;37.70;;
5153;SDS011;2595;53.584;10.084;2022-12-01T07:20:59;82.53;;;35.73;;
5153;SDS011;2595;53.584;10.084;2022-12-01T07:23:26;79.10;;;34.97;;
5153;SDS011;2595;53.584;10.084;2022-12-01T07:25:59;82.57;;;35.90;;
5153;SDS011;2595;53.584;10.084;2022-12-01T07:28:25;79.17;;;36.10;;
5153;SDS011;2595;53.584;10.084;2022-12-01T07:30:52;79.20;;;36.50;;
5153;SDS011;2595;53.584;10.084;2022-12-01T07:33:18;79.43;;;36.10;;
5153;SDS011;2595;53.584;10.084;2022-12-01T07:35:43;83.03;;;37.33;;
5153;SDS011;2595;53.584;10.084;2022-12-01T07:38:09;66.63;;;32.43;;
5153;SDS011;2595;53.584;10.084;2022-12-01T07:40:34;81.43;;;36.00;;
5153;SDS011;2595;53.584;10.084;2022-12-01T07:43:00;82.70;;;35.30;;
5153;SDS011;2595;53.584;10.084;2022-12-01T07:45:25;79.83;;;33.87;;
5153;SDS011;2595;53.584;10.084;2022-12-01T07:47:51;83.10;;;35.07;;
5153;SDS011;2595;53.584;10.084;2022-12-01T07:50:18;72.60;;;35.70;;
5153;SDS011;2595;53.584;10.084;2022-12-01T07:52:43;74.07;;;33.80;;
5153;SDS011;2595;53.584;10.084;2022-12-01T07:55:12;72.87;;;34.03;;
5153;SDS011;2595;53.584;10.084;2022-12-01T07:57:38;73.17;;;34.83;;
5153;SDS011;2595;53.584;10.084;2022-12-01T08:00:04;70.37;;;32.50;;
5153;SDS011;2595;53.584;10.084;2022-12-01T08:02:30;79.23;;;34.70;;
5153;SDS011;2595;53.584;10.084;2022-12-01T08:04:55;74.13;;;33.93;;
5153;SDS011;2595;53.584;10.084;2022-12-01T08:07:21;73.20;;;33.03;;
5153;SDS011;2595;53.584;10.084;2022-12-01T08:09:47;74.67;;;33.10;;
5153;SDS011;2595;53.584;10.084;2022-12-01T08:12:12;72.90;;;33.10;;
5153;SDS011;2595;53.584;10.084;2022-12-01T08:14:38;77.93;;;33.57;;
5153;SDS011;2595;53.584;10.084;2022-12-01T08:17:03;73.40;;;34.67;;
5153;SDS011;2595;53.584;10.084;2022-12-01T08:19:29;70.83;;;30.10;;
5153;SDS011;2595;53.584;10.084;2022-12-01T08:21:54;70.47;;;32.40;;
5153;SDS011;2595;53.584;10.084;2022-12-01T08:24:20;67.93;;;32.83;;
5153;SDS011;2595;53.584;10.084;2022-12-01T08:26:46;71.20;;;32.40;;
5153;SDS011;2595;53.584;10.084;2022-12-01T08:29:11;67.13;;;32.10;;
5153;SDS011;2595;53.584;10.084;2022-12-01T08:31:37;59.57;;;25.90;;
5153;SDS011;2595;53.584;10.084;2022-12-01T08:34:04;62.23;;;30.47;;
5153;SDS011;2595;53.584;10.084;2022-12-01T08:36:30;61.67;;;29.60;;
5153;SDS011;2595;53.584;10.084;2022-12-01T08:38:57;68.10;;;30.93;;
5153;SDS011;2595;53.584;10.084;2022-12-01T08:41:22;75.50;;;33.70;;
5153;SDS011;2595;53.584;10.084;2022-12-01T08:43:48;79.43;;;32.20;;
5153;SDS011;2595;53.584;10.084;2022-12-01T08:46:14;64.90;;;31.40;;
5153;SDS011;2595;53.584;10.084;2022-12-01T08:48:40;68.67;;;32.97;;
5153;SDS011;2595;53.584;10.084;2022-12-01T08:51:13;65.87;;;30.50;;
5153;SDS011;2595;53.584;10.084;2022-12-01T08:53:40;64.77;;;29.93;;
5153;SDS011;2595;53.584;10.084;2022-12-01T08:56:41;62.77;;;30.27;;
5153;SDS011;2595;53.584;10.084;2022-12-01T08:59:01;67.00;;;30.87;;
5153;SDS011;2595;53.584;10.084;2022-12-01T09:01:27;75.23;;;31.13;;
5153;SDS011;2595;53.584;10.084;2022-12-01T09:03:55;73.60;;;32.80;;
5153;SDS011;2595;53.584;10.084;2022-12-01T09:06:33;62.50;;;28.80;;
5153;SDS011;2595;53.584;10.084;2022-12-01T09:09:03;71.27;;;30.23;;
5153;SDS011;2595;53.584;10.084;2022-12-01T09:11:29;64.53;;;30.67;;
5153;SDS011;2595;53.584;10.084;2022-12-01T09:13:55;73.10;;;31.00;;
5153;SDS011;2595;53.584;10.084;2022-12-01T09:16:22;66.03;;;28.50;;
5153;SDS011;2595;53.584;10.084;2022-12-01T09:18:48;62.90;;;29.23;;
5153;SDS011;2595;53.584;10.084;2022-12-01T09:21:14;72.67;;;33.00;;
5153;SDS011;2595;53.584;10.084;2022-12-01T09:23:43;62.07;;;29.93;;
5153;SDS011;2595;53.584;10.084;2022-12-01T09:26:08;75.20;;;31.13;;
5153;SDS011;2595;53.584;10.084;2022-12-01T09:28:35;68.80;;;29.80;;
5153;SDS011;2595;53.584;10.084;2022-12-01T09:31:04;68.17;;;30.13;;
5153;SDS011;2595;53.584;10.084;2022-12-01T09:33:34;62.33;;;28.50;;
5153;SDS011;2595;53.584;10.084;2022-12-01T09:36:00;66.13;;;28.77;;
5153;SDS011;2595;53.584;10.084;2022-12-01T09:38:27;67.03;;;29.07;;
5153;SDS011;2595;53.584;10.084;2022-12-01T09:40:53;70.60;;;30.40;;
5153;SDS011;2595;53.584;10.084;2022-12-01T09:43:21;73.63;;;30.57;;
5153;SDS011;2595;53.584;10.084;2022-12-01T09:45:53;62.43;;;27.20;;
5153;SDS011;2595;53.584;10.084;2022-12-01T09:50:53;68.53;;;26.93;;
5153;SDS011;2595;53.584;10.084;2022-12-01T09:53:20;63.87;;;32.30;;
5153;SDS011;2595;53.584;10.084;2022-12-01T09:55:47;51.80;;;25.93;;
5153;SDS011;2595;53.584;10.084;2022-12-01T09:58:16;60.93;;;29.27;;
5153;SDS011;2595;53.584;10.084;2022-12-01T10:00:44;65.33;;;28.27;;
5153;SDS011;2595;53.584;10.084;2022-12-01T10:05:57;65.90;;;26.83;;
5153;SDS011;2595;53.584;10.084;2022-12-01T10:08:28;47.57;;;24.63;;
5153;SDS011;2595;53.584;10.084;2022-12-01T10:10:59;58.17;;;28.00;;
5153;SDS011;2595;53.584;10.084;2022-12-01T10:13:30;57.43;;;24.60;;
5153;SDS011;2595;53.584;10.084;2022-12-01T10:32:28;57.83;;;25.27;;
5153;SDS011;2595;53.584;10.084;2022-12-01T10:35:04;53.13;;;24.30;;
5153;SDS011;2595;53.584;10.084;2022-12-01T10:37:30;49.07;;;22.70;;
5153;SDS011;2595;53.584;10.084;2022-12-01T10:39:56;43.00;;;21.37;;
5153;SDS011;2595;53.584;10.084;2022-12-01T10:45:04;38.77;;;18.23;;
5153;SDS011;2595;53.584;10.084;2022-12-01T10:47:32;45.37;;;20.33;;
5153;SDS011;2595;53.584;10.084;2022-12-01T10:49:58;37.87;;;18.37;;
5153;SDS011;2595;53.584;10.084;2022-12-01T10:52:34;38.40;;;19.13;;
5153;SDS011;2595;53.584;10.084;2022-12-01T10:55:02;48.83;;;18.83;;
5153;SDS011;2595;53.584;10.084;2022-12-01T10:57:46;36.40;;;18.70;;
5153;SDS011;2595;53.584;10.084;2022-12-01T11:00:20;46.40;;;21.77;;
5153;SDS011;2595;53.584;10.084;2022-12-01T11:02:49;42.30;;;20.73;;
5153;SDS011;2595;53.584;10.084;2022-12-01T11:05:19;52.83;;;22.73;;
5153;SDS011;2595;53.584;10.084;2022-12-01T11:07:51;34.13;;;18.30;;
5153;SDS011;2595;53.584;10.084;2022-12-01T11:15:31;52.70;;;23.17;;
5153;SDS011;2595;53.584;10.084;2022-12-01T11:18:02;60.47;;;23.10;;
5153;SDS011;2595;53.584;10.084;2022-12-01T11:20:31;51.33;;;22.27;;
5153;SDS011;2595;53.584;10.084;2022-12-01T11:25:34;54.43;;;23.73;;
5153;SDS011;2595;53.584;10.084;2022-12-01T11:28:00;53.70;;;22.30;;
5153;SDS011;2595;53.584;10.084;2022-12-01T11:30:28;49.83;;;22.00;;
5153;SDS011;2595;53.584;10.084;2022-12-01T11:32:56;43.03;;;18.93;;
5153;SDS011;2595;53.584;10.084;2022-12-01T11:35:25;51.63;;;20.50;;
5153;SDS011;2595;53.584;10.084;2022-12-01T11:37:56;44.80;;;20.60;;
5153;SDS011;2595;53.584;10.084;2022-12-01T11:40:25;43.43;;;20.57;;
5153;SDS011;2595;53.584;10.084;2022-12-01T11:42:56;42.63;;;20.50;;
5153;SDS011;2595;53.584;10.084;2022-12-01T11:45:25;46.17;;;21.50;;
5153;SDS011;2595;53.584;10.084;2022-12-01T11:48:00;43.17;;;18.37;;
5153;SDS011;2595;53.584;10.084;2022-12-01T11:51:09;38.03;;;18.20;;
5153;SDS011;2595;53.584;10.084;2022-12-01T11:53:43;36.80;;;17.80;;
5153;SDS011;2595;53.584;10.084;2022-12-01T11:58:48;39.90;;;19.60;;
5153;SDS011;2595;53.584;10.084;2022-12-01T12:12:27;40.23;;;16.97;;
5153;SDS011;2595;53.584;10.084;2022-12-01T12:48:31;40.53;;;18.50;;
5153;SDS011;2595;53.584;10.084;2022-12-01T12:51:10;44.90;;;19.20;;
5153;SDS011;2595;53.584;10.084;2022-12-01T12:53:44;39.70;;;16.20;;
5153;SDS011;2595;53.584;10.084;2022-12-01T12:56:22;45.80;;;17.93;;
5153;SDS011;2595;53.584;10.084;2022-12-01T12:59:06;45.80;;;16.67;;
5153;SDS011;2595;53.584;10.084;2022-12-01T13:01:55;43.83;;;17.40;;
5153;SDS011;2595;53.584;10.084;2022-12-01T13:09:41;45.43;;;17.43;;
5153;SDS011;2595;53.584;10.084;2022-12-01T13:12:13;42.03;;;15.83;;
5153;SDS011;2595;53.584;10.084;2022-12-01T13:17:29;39.40;;;15.77;;
5153;SDS011;2595;53.584;10.084;2022-12-01T13:19:59;41.17;;;15.30;;
5153;SDS011;2595;53.584;10.084;2022-12-01T13:22:32;46.37;;;14.20;;
5153;SDS011;2595;53.584;10.084;2022-12-01T13:24:59;36.63;;;14.60;;
5153;SDS011;2595;53.584;10.084;2022-12-01T13:27:28;22.73;;;13.70;;
5153;SDS011;2595;53.584;10.084;2022-12-01T13:30:05;35.03;;;13.50;;
5153;SDS011;2595;53.584;10.084;2022-12-01T13:32:42;24.83;;;13.57;;
5153;SDS011;2595;53.584;10.084;2022-12-01T13:37:43;30.50;;;13.97;;
5153;SDS011;2595;53.584;10.084;2022-12-01T13:42:55;31.93;;;14.07;;
5153;SDS011;2595;53.584;10.084;2022-12-01T13:45:21;27.53;;;14.00;;
5153;SDS011;2595;53.584;10.084;2022-12-01T13:47:51;28.73;;;13.97;;
5153;SDS011;2595;53.584;10.084;2022-12-01T14:12:00;28.40;;;13.20;;
5153;SDS011;2595;53.584;10.084;2022-12-01T14:14:31;34.00;;;12.67;;
5153;SDS011;2595;53.584;10.084;2022-12-01T14:16:59;34.00;;;13.67;;
5153;SDS011;2595;53.584;10.084;2022-12-01T14:22:03;29.20;;;13.60;;
5153;SDS011;2595;53.584;10.084;2022-12-01T14:24:34;37.10;;;15.00;;
5153;SDS011;2595;53.584;10.084;2022-12-01T14:27:06;32.47;;;12.93;;
5153;SDS011;2595;53.584;10.084;2022-12-01T14:34:28;34.40;;;14.13;;
5153;SDS011;2595;53.584;10.084;2022-12-01T14:39:33;28.80;;;14.97;;
5153;SDS011;2595;53.584;10.084;2022-12-01T14:44:46;30.67;;;13.10;;
5153;SDS011;2595;53.584;10.084;2022-12-01T14:47:15;30.23;;;12.67;;
5153;SDS011;2595;53.584;10.084;2022-12-01T14:54:53;25.13;;;11.67;;
5153;SDS011;2595;53.584;10.084;2022-12-01T14:57:22;27.90;;;13.83;;
5153;SDS011;2595;53.584;10.084;2022-12-01T15:00:06;31.13;;;12.73;;
5153;SDS011;2595;53.584;10.084;2022-12-01T15:02:41;32.67;;;13.30;;
5153;SDS011;2595;53.584;10.084;2022-12-01T15:05:17;21.50;;;12.80;;
5153;SDS011;2595;53.584;10.084;2022-12-01T15:07:45;29.70;;;13.53;;
5153;SDS011;2595;53.584;10.084;2022-12-01T15:10:14;27.97;;;12.30;;
5153;SDS011;2595;53.584;10.084;2022-12-01T15:12:45;37.03;;;15.17;;
5153;SDS011;2595;53.584;10.084;2022-12-01T15:17:41;29.27;;;14.83;;
5153;SDS011;2595;53.584;10.084;2022-12-01T15:22:55;27.87;;;13.00;;
5153;SDS011;2595;53.584;10.084;2022-12-01T15:25:22;33.87;;;14.40;;
5153;SDS011;2595;53.584;10.084;2022-12-01T15:30:38;22.47;;;12.77;;
5153;SDS011;2595;53.584;10.084;2022-12-01T15:33:05;25.93;;;12.83;;
5153;SDS011;2595;53.584;10.084;2022-12-01T15:35:39;31.50;;;15.57;;
5153;SDS011;2595;53.584;10.084;2022-12-01T15:38:05;22.57;;;12.57;;
5153;SDS011;2595;53.584;10.084;2022-12-01T15:40:39;30.90;;;12.70;;
5153;SDS011;2595;53.584;10.084;2022-12-01T15:43:13;27.77;;;13.43;;
5153;SDS011;2595;53.584;10.084;2022-12-01T15:48:29;18.40;;;10.80;;
5153;SDS011;2595;53.584;10.084;2022-12-01T15:53:48;24.67;;;12.80;;
5153;SDS011;2595;53.584;10.084;2022-12-01T15:56:23;26.23;;;12.70;;
5153;SDS011;2595;53.584;10.084;2022-12-01T15:58:55;27.80;;;13.80;;
5153;SDS011;2595;53.584;10.084;2022-12-01T16:01:28;25.90;;;13.43;;
5153;SDS011;2595;53.584;10.084;2022-12-01T16:03:58;29.17;;;14.33;;
5153;SDS011;2595;53.584;10.084;2022-12-01T16:06:30;27.87;;;13.87;;
5153;SDS011;2595;53.584;10.084;2022-12-01T16:09:03;28.23;;;13.10;;
5153;SDS011;2595;53.584;10.084;2022-12-01T16:14:31;34.50;;;17.33;;
5153;SDS011;2595;53.584;10.084;2022-12-01T16:16:58;26.57;;;15.43;;
5153;SDS011;2595;53.584;10.084;2022-12-01T16:19:26;39.50;;;17.03;;
5153;SDS011;2595;53.584;10.084;2022-12-01T16:24:34;35.13;;;15.77;;
5153;SDS011;2595;53.584;10.084;2022-12-01T16:29:54;41.93;;;16.70;;
5153;SDS011;2595;53.584;10.084;2022-12-01T16:32:31;52.67;;;19.70;;
5153;SDS011;2595;53.584;10.084;2022-12-01T16:35:02;56.87;;;19.63;;
5153;SDS011;2595;53.584;10.084;2022-12-01T16:37:29;54.03;;;19.97;;
5153;SDS011;2595;53.584;10.084;2022-12-01T16:39:55;46.37;;;18.87;;
5153;SDS011;2595;53.584;10.084;2022-12-01T16:42:22;46.33;;;17.40;;
5153;SDS011;2595;53.584;10.084;2022-12-01T16:44:49;47.87;;;19.20;;
5153;SDS011;2595;53.584;10.084;2022-12-01T16:47:22;40.93;;;18.00;;
5153;SDS011;2595;53.584;10.084;2022-12-01T16:49:49;55.47;;;18.77;;
5153;SDS011;2595;53.584;10.084;2022-12-01T16:52:16;51.90;;;21.20;;
5153;SDS011;2595;53.584;10.084;2022-12-01T16:54:41;55.30;;;19.83;;
5153;SDS011;2595;53.584;10.084;2022-12-01T16:57:07;59.63;;;19.97;;
5153;SDS011;2595;53.584;10.084;2022-12-01T16:59:33;48.27;;;18.90;;
5153;SDS011;2595;53.584;10.084;2022-12-01T17:01:58;58.87;;;19.90;;
5153;SDS011;2595;53.584;10.084;2022-12-01T17:04:24;51.80;;;19.93;;
5153;SDS011;2595;53.584;10.084;2022-12-01T17:06:50;52.57;;;19.37;;
5153;SDS011;2595;53.584;10.084;2022-12-01T17:09:16;49.43;;;19.47;;
5153;SDS011;2595;53.584;10.084;2022-12-01T17:11:42;55.90;;;20.47;;
5153;SDS011;2595;53.584;10.084;2022-12-01T17:14:07;59.97;;;21.80;;
5153;SDS011;2595;53.584;10.084;2022-12-01T17:16:33;62.37;;;23.10;;
5153;SDS011;2595;53.584;10.084;2022-12-01T17:18:59;50.47;;;19.17;;
5153;SDS011;2595;53.584;10.084;2022-12-01T17:21:25;46.93;;;19.77;;
5153;SDS011;2595;53.584;10.084;2022-12-01T17:23:51;57.10;;;19.50;;
5153;SDS011;2595;53.584;10.084;2022-12-01T17:26:17;56.57;;;19.97;;
5153;SDS011;2595;53.584;10.084;2022-12-01T17:28:43;61.00;;;19.27;;
5153;SDS011;2595;53.584;10.084;2022-12-01T17:31:09;54.23;;;18.07;;
5153;SDS011;2595;53.584;10.084;2022-12-01T17:33:35;53.07;;;18.20;;
5153;SDS011;2595;53.584;10.084;2022-12-01T17:36:02;68.37;;;21.40;;
5153;SDS011;2595;53.584;10.084;2022-12-01T17:38:29;53.83;;;20.87;;
5153;SDS011;2595;53.584;10.084;2022-12-01T17:40:59;63.73;;;20.47;;
5153;SDS011;2595;53.584;10.084;2022-12-01T17:43:26;50.20;;;18.10;;
5153;SDS011;2595;53.584;10.084;2022-12-01T17:45:51;46.00;;;20.07;;
5153;SDS011;2595;53.584;10.084;2022-12-01T17:48:17;46.70;;;19.17;;
5153;SDS011;2595;53.584;10.084;2022-12-01T17:50:43;56.50;;;18.60;;
5153;SDS011;2595;53.584;10.084;2022-12-01T17:53:08;57.83;;;20.90;;